createdAt,value
2022-08-20T00:02:53.321Z,0.00
2022-08-20T00:12:58.872Z,0.00
2022-08-20T00:23:10.350Z,0.00
2022-08-20T00:33:17.025Z,0.00
2022-08-20T00:43:24.745Z,0.00
2022-08-20T00:53:30.249Z,0.00
2022-08-20T01:03:38.494Z,0.00
2022-08-20T01:13:44.667Z,0.00
2022-08-20T01:23:51.238Z,0.00
2022-08-20T01:33:57.254Z,0.00
2022-08-20T01:44:03.205Z,0.00
2022-08-20T01:54:10.269Z,0.00
2022-08-20T02:04:16.737Z,0.00
2022-08-20T02:14:23.162Z,0.00
2022-08-20T02:24:34.227Z,0.00
2022-08-20T02:34:40.272Z,0.00
2022-08-20T02:44:48.158Z,0.00
2022-08-20T02:54:54.333Z,0.00
2022-08-20T03:05:00.648Z,0.00
2022-08-20T03:15:06.972Z,0.00
2022-08-20T03:25:18.235Z,0.00
2022-08-20T03:35:24.317Z,0.00
2022-08-20T03:45:30.404Z,0.00
2022-08-20T03:55:36.406Z,8.00
2022-08-20T04:05:42.849Z,24.00
2022-08-20T04:15:48.943Z,72.00
2022-08-20T04:25:56.757Z,144.00
2022-08-20T04:36:02.918Z,200.00
2022-08-20T04:46:10.915Z,356.00
2022-08-20T04:56:16.691Z,504.00
2022-08-20T05:06:23.101Z,552.00
2022-08-20T05:16:29.174Z,708.00
2022-08-20T05:26:35.322Z,788.00
2022-08-20T05:36:41.296Z,1044.00
2022-08-20T05:46:47.234Z,1052.00
2022-08-20T05:56:53.611Z,1212.00
2022-08-20T06:07:00.088Z,1292.00
2022-08-20T06:17:06.457Z,1612.00
2022-08-20T06:27:12.862Z,1872.00
2022-08-20T06:37:19.240Z,2496.00
2022-08-20T06:47:25.508Z,2588.00
2022-08-20T06:57:31.523Z,2492.00
2022-08-20T07:07:37.636Z,2624.00
2022-08-20T07:17:43.638Z,2816.00
2022-08-20T07:27:50.023Z,3580.00
2022-08-20T07:37:56.293Z,4476.00
2022-08-20T07:48:02.831Z,5056.00
2022-08-20T07:58:09.218Z,5200.00
2022-08-20T08:08:17.527Z,5192.00
2022-08-20T08:18:23.272Z,5824.00
2022-08-20T08:28:29.778Z,5964.00
2022-08-20T08:38:36.078Z,5896.00
2022-08-20T08:48:45.566Z,6044.00
2022-08-20T08:58:51.748Z,6224.00
2022-08-20T09:08:59.542Z,6416.00
2022-08-20T09:19:05.379Z,6048.00
2022-08-20T09:29:13.345Z,5188.00
2022-08-20T09:39:20.976Z,5248.00
2022-08-20T09:49:28.842Z,6368.00
2022-08-20T09:59:34.799Z,7576.00
2022-08-20T10:09:42.364Z,9968.00
2022-08-20T10:19:48.556Z,10500.00
2022-08-20T10:29:56.324Z,10492.00
2022-08-20T10:40:02.447Z,10928.00
2022-08-20T10:50:10.519Z,9536.00
2022-08-20T11:00:16.568Z,8804.00
2022-08-20T11:10:23.991Z,9468.00
2022-08-20T11:20:30.081Z,7052.00
2022-08-20T11:30:37.849Z,6836.00
2022-08-20T11:40:43.577Z,4932.00
2022-08-20T11:50:51.729Z,10900.00
2022-08-20T12:00:58.129Z,8700.00
2022-08-20T12:11:04.598Z,6740.00
2022-08-20T12:21:10.997Z,6532.00
2022-08-20T12:31:17.399Z,5952.00
2022-08-20T12:41:23.555Z,6208.00
2022-08-20T12:51:29.944Z,9212.00
2022-08-20T13:01:36.430Z,8084.00
2022-08-20T13:11:43.239Z,5816.00
2022-08-20T13:21:54.781Z,3684.00
2022-08-20T13:32:00.983Z,2728.00
2022-08-20T13:42:06.903Z,2320.00
2022-08-20T13:52:12.786Z,2092.00
2022-08-20T14:02:22.776Z,2116.00
2022-08-20T14:12:28.724Z,2460.00
2022-08-20T14:22:36.958Z,2236.00
2022-08-20T14:32:42.985Z,3236.00
2022-08-20T14:42:51.476Z,3560.00
2022-08-20T14:52:57.948Z,5272.00
2022-08-20T15:03:03.634Z,5392.00
2022-08-20T15:13:09.523Z,3836.00
2022-08-20T15:23:15.207Z,8096.00
2022-08-20T15:33:20.716Z,8620.00
2022-08-20T15:43:26.502Z,7952.00
2022-08-20T15:53:32.557Z,7440.00
2022-08-20T16:03:38.578Z,7440.00
2022-08-20T16:13:44.502Z,6000.00
2022-08-20T16:23:50.160Z,4188.00
2022-08-20T16:33:55.654Z,3836.00
2022-08-20T16:44:01.391Z,3144.00
2022-08-20T16:54:06.909Z,2456.00
2022-08-20T17:04:12.445Z,2376.00
2022-08-20T17:14:18.254Z,1944.00
2022-08-20T17:24:24.146Z,1668.00
2022-08-20T17:34:29.996Z,1380.00
2022-08-20T17:44:35.846Z,1036.00
2022-08-20T17:54:41.617Z,696.00
2022-08-20T18:04:47.557Z,524.00
2022-08-20T18:14:53.318Z,292.00
2022-08-20T18:24:59.413Z,96.00
2022-08-20T18:35:05.372Z,28.00
2022-08-20T18:45:11.126Z,8.00
2022-08-20T18:55:17.032Z,0.00
2022-08-20T19:05:22.920Z,0.00
2022-08-20T19:15:28.513Z,0.00
2022-08-20T19:25:34.394Z,0.00
2022-08-20T19:35:40.194Z,0.00
2022-08-20T19:45:47.804Z,0.00
2022-08-20T19:55:54.127Z,0.00
2022-08-20T20:06:00.240Z,0.00
2022-08-20T20:16:06.033Z,0.00
2022-08-20T20:26:12.453Z,0.00
2022-08-20T20:36:18.789Z,0.00
2022-08-20T20:46:26.385Z,0.00
2022-08-20T20:56:32.297Z,0.00
2022-08-20T21:06:38.325Z,0.00
2022-08-20T21:16:44.369Z,0.00
2022-08-20T21:26:50.584Z,0.00
2022-08-20T21:36:56.741Z,0.00
2022-08-20T21:47:05.443Z,0.00
2022-08-20T21:57:11.831Z,0.00
2022-08-20T22:07:17.950Z,0.00
2022-08-20T22:17:24.273Z,0.00
2022-08-20T22:27:30.360Z,0.00
2022-08-20T22:37:36.446Z,0.00
2022-08-20T22:47:42.628Z,0.00
2022-08-20T22:57:48.565Z,0.00
2022-08-20T23:07:55.109Z,0.00
2022-08-20T23:18:01.371Z,0.00
2022-08-20T23:28:10.438Z,0.00
2022-08-20T23:38:16.306Z,0.00
2022-08-20T23:48:23.592Z,0.00
2022-08-20T23:58:29.284Z,0.00
